createdAt,value
2023-03-04T00:01:42.577Z,60.61
2023-03-04T00:04:09.173Z,61.59
2023-03-04T00:06:35.628Z,61.51
2023-03-04T00:09:03.981Z,60.94
2023-03-04T00:11:35.058Z,61.13
2023-03-04T00:14:04.443Z,61.67
2023-03-04T00:16:30.982Z,62.10
2023-03-04T00:18:58.145Z,62.64
2023-03-04T00:21:25.176Z,62.37
2023-03-04T00:23:51.833Z,62.47
2023-03-04T00:26:18.734Z,62.32
2023-03-04T00:28:45.304Z,62.18
2023-03-04T00:31:12.147Z,62.85
2023-03-04T00:33:40.202Z,63.17
2023-03-04T00:36:07.278Z,62.60
2023-03-04T00:38:33.783Z,62.01
2023-03-04T00:41:00.287Z,61.90
2023-03-04T00:43:26.804Z,62.48
2023-03-04T00:45:53.384Z,62.25
2023-03-04T00:48:22.538Z,61.53
2023-03-04T00:50:51.595Z,61.42
2023-03-04T00:53:18.058Z,61.36
2023-03-04T00:55:44.536Z,61.43
2023-03-04T00:58:11.062Z,62.02
2023-03-04T01:00:37.532Z,62.29
2023-03-04T01:03:04.113Z,61.79
2023-03-04T01:05:32.011Z,61.19
2023-03-04T01:07:58.444Z,61.22
2023-03-04T01:10:25.050Z,62.02
2023-03-04T01:13:00.179Z,62.69
2023-03-04T01:15:27.123Z,62.52
2023-03-04T01:17:53.690Z,62.04
2023-03-04T01:20:20.534Z,61.77
2023-03-04T01:22:47.145Z,62.47
2023-03-04T01:25:13.625Z,62.20
2023-03-04T01:27:50.621Z,62.06
2023-03-04T01:30:23.931Z,62.03
2023-03-04T01:33:04.502Z,62.65
2023-03-04T01:35:31.205Z,62.58
2023-03-04T01:37:57.826Z,62.45
2023-03-04T01:40:24.340Z,62.18
2023-03-04T01:42:51.037Z,62.61
2023-03-04T01:45:20.072Z,62.44
2023-03-04T01:47:49.115Z,62.57
2023-03-04T01:50:35.790Z,62.04
2023-03-04T01:53:06.178Z,62.07
2023-03-04T01:55:33.073Z,62.40
2023-03-04T01:57:59.647Z,62.16
2023-03-04T02:00:29.394Z,62.02
2023-03-04T02:03:02.270Z,62.68
2023-03-04T02:05:30.036Z,63.17
2023-03-04T02:07:59.370Z,63.04
2023-03-04T02:10:28.199Z,62.87
2023-03-04T02:12:54.965Z,62.12
2023-03-04T02:15:22.139Z,62.08
2023-03-04T02:17:48.877Z,61.68
2023-03-04T02:21:10.228Z,62.55
2023-03-04T02:23:56.746Z,62.64
2023-03-04T02:26:31.972Z,62.68
2023-03-04T02:29:00.974Z,61.88
2023-03-04T02:31:50.344Z,62.14
2023-03-04T02:34:33.004Z,62.26
2023-03-04T02:37:00.444Z,62.65
2023-03-04T02:39:41.386Z,62.29
2023-03-04T02:42:13.397Z,62.88
2023-03-04T02:44:47.686Z,63.58
2023-03-04T02:47:26.023Z,62.92
2023-03-04T02:49:52.593Z,63.09
2023-03-04T02:52:26.002Z,63.13
2023-03-04T02:54:52.501Z,63.04
2023-03-04T02:57:19.001Z,63.20
2023-03-04T02:59:45.495Z,63.03
2023-03-04T03:02:12.366Z,62.63
2023-03-04T03:04:41.027Z,62.47
2023-03-04T03:07:22.201Z,63.17
2023-03-04T03:09:48.723Z,62.92
2023-03-04T03:12:15.192Z,62.84
2023-03-04T03:14:41.654Z,63.79
2023-03-04T03:17:08.161Z,63.44
2023-03-04T03:19:34.647Z,63.55
2023-03-04T03:22:01.197Z,63.83
2023-03-04T03:24:27.716Z,63.72
2023-03-04T03:26:54.189Z,63.10
2023-03-04T03:29:20.632Z,62.79
2023-03-04T03:31:47.138Z,63.54
2023-03-04T03:34:13.654Z,63.56
2023-03-04T03:36:40.204Z,62.86
2023-03-04T03:39:06.737Z,63.38
2023-03-04T03:41:36.250Z,62.78
2023-03-04T03:44:02.842Z,62.39
2023-03-04T03:46:29.910Z,62.46
2023-03-04T03:48:56.386Z,62.44
2023-03-04T03:51:22.909Z,62.79
2023-03-04T03:53:52.144Z,63.28
2023-03-04T03:56:18.677Z,63.55
2023-03-04T03:58:45.170Z,63.21
2023-03-04T04:01:11.638Z,62.97
2023-03-04T04:03:38.127Z,62.63
2023-03-04T04:06:04.919Z,63.22
2023-03-04T04:08:31.686Z,62.67
2023-03-04T04:10:58.263Z,62.85
2023-03-04T04:13:26.793Z,62.89
2023-03-04T04:15:54.241Z,62.72
2023-03-04T04:18:20.788Z,62.75
2023-03-04T04:20:56.280Z,63.39
2023-03-04T04:23:23.022Z,62.96
2023-03-04T04:25:49.536Z,63.27
2023-03-04T04:28:16.008Z,62.82
2023-03-04T04:30:51.379Z,62.85
2023-03-04T04:33:21.018Z,63.46
2023-03-04T04:35:47.558Z,62.65
2023-03-04T04:38:14.075Z,62.98
2023-03-04T04:40:40.748Z,62.98
2023-03-04T04:43:07.204Z,62.54
2023-03-04T04:45:34.476Z,63.08
2023-03-04T04:48:00.977Z,63.03
2023-03-04T04:50:32.798Z,63.49
2023-03-04T04:53:07.723Z,63.95
2023-03-04T04:55:34.786Z,64.30
2023-03-04T04:58:01.284Z,63.86
2023-03-04T05:00:27.779Z,64.17
2023-03-04T05:02:54.350Z,64.18
2023-03-04T05:05:20.875Z,63.11
2023-03-04T05:07:47.334Z,62.86
2023-03-04T05:10:13.816Z,62.56
2023-03-04T05:12:40.283Z,62.00
2023-03-04T05:15:08.383Z,61.52
2023-03-04T05:17:34.921Z,61.05
2023-03-04T05:20:01.485Z,61.02
2023-03-04T05:22:27.943Z,61.04
2023-03-04T05:24:57.260Z,60.89
2023-03-04T05:27:23.858Z,60.65
2023-03-04T05:29:58.460Z,60.43
2023-03-04T05:32:25.224Z,60.49
2023-03-04T05:34:51.770Z,60.90
2023-03-04T05:37:18.217Z,61.44
2023-03-04T05:39:44.838Z,60.92
2023-03-04T05:42:11.275Z,60.66
2023-03-04T05:44:40.540Z,61.02
2023-03-04T05:47:06.998Z,60.72
2023-03-04T05:49:33.493Z,60.59
2023-03-04T05:51:59.995Z,60.60
2023-03-04T05:54:26.524Z,60.41
2023-03-04T05:56:53.057Z,60.08
2023-03-04T05:59:20.562Z,59.58
2023-03-04T06:01:48.318Z,60.12
2023-03-04T06:04:14.872Z,60.03
2023-03-04T06:06:41.438Z,60.24
2023-03-04T06:09:07.964Z,60.06
2023-03-04T06:11:37.011Z,60.41
2023-03-04T06:14:03.924Z,59.97
2023-03-04T06:16:30.471Z,59.83
2023-03-04T06:18:57.067Z,59.85
2023-03-04T06:21:24.029Z,59.60
2023-03-04T06:23:50.560Z,60.23
2023-03-04T06:26:22.754Z,59.78
2023-03-04T06:28:49.305Z,59.90
2023-03-04T06:31:16.029Z,59.52
2023-03-04T06:33:42.640Z,59.42
2023-03-04T06:36:11.956Z,59.33
2023-03-04T06:38:38.525Z,59.41
2023-03-04T06:41:15.584Z,59.44
2023-03-04T06:43:46.510Z,59.57
2023-03-04T06:46:13.141Z,59.77
2023-03-04T06:48:39.776Z,58.65
2023-03-04T06:51:09.026Z,58.71
2023-03-04T06:53:51.413Z,58.37
2023-03-04T06:56:17.966Z,58.65
2023-03-04T06:58:46.226Z,59.07
2023-03-04T07:01:24.009Z,59.28
2023-03-04T07:03:52.824Z,59.88
2023-03-04T07:06:25.030Z,59.47
2023-03-04T07:08:52.324Z,58.97
2023-03-04T07:11:20.592Z,59.03
2023-03-04T07:13:47.098Z,58.80
2023-03-04T07:16:21.907Z,58.48
2023-03-04T07:18:49.090Z,58.36
2023-03-04T07:21:17.490Z,58.81
2023-03-04T07:23:44.240Z,59.02
2023-03-04T07:26:10.851Z,59.07
2023-03-04T07:28:45.013Z,58.66
2023-03-04T07:31:21.880Z,57.65
2023-03-04T07:33:48.646Z,58.22
2023-03-04T07:36:15.368Z,58.92
2023-03-04T07:38:59.269Z,59.28
2023-03-04T07:41:28.126Z,59.15
2023-03-04T07:43:57.836Z,58.92
2023-03-04T07:46:26.376Z,59.03
2023-03-04T07:48:54.677Z,59.13
2023-03-04T07:51:25.598Z,59.30
2023-03-04T07:53:57.289Z,59.12
2023-03-04T07:56:30.449Z,58.94
2023-03-04T07:58:57.723Z,59.17
2023-03-04T08:01:31.655Z,59.23
2023-03-04T08:03:59.608Z,59.58
2023-03-04T08:06:27.217Z,58.94
2023-03-04T08:09:01.209Z,59.10
2023-03-04T08:11:29.774Z,59.26
2023-03-04T08:13:56.976Z,59.09
2023-03-04T08:16:25.403Z,59.10
2023-03-04T08:18:55.723Z,58.61
2023-03-04T08:21:24.646Z,58.24
2023-03-04T08:23:52.315Z,58.29
2023-03-04T08:26:26.090Z,57.67
2023-03-04T08:28:54.383Z,58.32
2023-03-04T08:31:21.297Z,57.94
2023-03-04T08:33:48.239Z,57.85
2023-03-04T08:36:15.883Z,58.04
2023-03-04T08:38:43.112Z,58.18
2023-03-04T08:41:10.014Z,58.50
2023-03-04T08:43:36.762Z,58.46
2023-03-04T08:46:03.823Z,58.38
2023-03-04T08:48:30.369Z,57.70
2023-03-04T08:50:56.834Z,57.69
2023-03-04T08:53:24.041Z,57.59
2023-03-04T08:55:52.756Z,57.33
2023-03-04T08:58:19.756Z,56.93
2023-03-04T09:00:49.309Z,57.04
2023-03-04T09:03:19.360Z,57.46
2023-03-04T09:05:48.454Z,57.56
2023-03-04T09:08:16.813Z,57.94
2023-03-04T09:10:44.753Z,58.04
2023-03-04T09:13:12.001Z,57.79
2023-03-04T09:16:00.158Z,57.31
2023-03-04T09:18:27.871Z,57.24
2023-03-04T09:20:54.798Z,56.83
2023-03-04T09:23:22.271Z,56.28
2023-03-04T09:25:49.784Z,57.24
2023-03-04T09:28:18.333Z,56.96
2023-03-04T09:30:49.581Z,56.65
2023-03-04T09:33:27.063Z,56.01
2023-03-04T09:35:53.529Z,55.92
2023-03-04T09:38:20.025Z,55.55
2023-03-04T09:40:49.399Z,55.33
2023-03-04T09:43:29.897Z,55.67
2023-03-04T09:46:05.178Z,55.56
2023-03-04T09:48:49.884Z,55.09
2023-03-04T09:51:23.606Z,55.45
2023-03-04T09:54:25.963Z,55.82
2023-03-04T09:57:02.117Z,55.77
2023-03-04T09:59:56.604Z,55.70
2023-03-04T10:02:59.343Z,55.67
2023-03-04T10:05:29.583Z,55.99
2023-03-04T10:08:03.794Z,55.24
2023-03-04T10:10:40.367Z,55.52
2023-03-04T10:13:21.228Z,55.28
2023-03-04T10:15:51.129Z,54.76
2023-03-04T10:18:44.989Z,54.07
2023-03-04T10:21:29.384Z,54.63
2023-03-04T10:23:59.693Z,54.58
2023-03-04T10:26:33.310Z,54.32
2023-03-04T10:29:02.877Z,54.68
2023-03-04T10:31:37.346Z,54.76
2023-03-04T10:34:11.850Z,54.49
2023-03-04T10:36:56.557Z,53.32
2023-03-04T10:39:31.644Z,53.74
2023-03-04T10:42:23.978Z,54.27
2023-03-04T10:44:58.400Z,53.40
2023-03-04T10:47:28.628Z,53.46
2023-03-04T10:50:05.302Z,52.70
2023-03-04T10:52:36.144Z,53.60
2023-03-04T10:55:07.537Z,53.20
2023-03-04T10:57:43.467Z,52.97
2023-03-04T11:00:25.725Z,52.37
2023-03-04T11:02:52.323Z,53.11
2023-03-04T11:05:23.118Z,52.76
2023-03-04T11:07:56.960Z,53.15
2023-03-04T11:10:36.153Z,53.09
2023-03-04T11:13:11.427Z,52.97
2023-03-04T11:16:02.488Z,53.20
2023-03-04T11:19:04.166Z,53.46
2023-03-04T11:21:40.331Z,53.28
2023-03-04T11:24:27.440Z,53.28
2023-03-04T11:27:20.120Z,53.21
2023-03-04T11:29:57.673Z,53.54
2023-03-04T11:32:54.375Z,54.00
2023-03-04T11:35:53.668Z,53.54
2023-03-04T11:38:39.421Z,54.39
2023-03-04T11:41:41.319Z,53.41
2023-03-04T11:44:20.994Z,54.65
2023-03-04T11:47:19.278Z,54.15
2023-03-04T11:50:03.052Z,53.93
2023-03-04T11:53:01.745Z,54.21
2023-03-04T11:56:12.026Z,52.95
2023-03-04T11:59:00.146Z,54.61
2023-03-04T12:01:50.990Z,54.34
2023-03-04T12:04:44.541Z,54.58
2023-03-04T12:07:53.986Z,54.05
2023-03-04T12:10:31.788Z,54.11
2023-03-04T12:13:18.263Z,54.56
2023-03-04T12:16:39.355Z,54.82
2023-03-04T12:19:29.118Z,54.95
2023-03-04T12:22:21.333Z,54.32
2023-03-04T12:25:23.447Z,53.80
2023-03-04T12:28:10.361Z,54.16
2023-03-04T12:30:45.699Z,53.95
2023-03-04T12:33:36.303Z,54.42
2023-03-04T12:36:25.445Z,54.08
2023-03-04T12:39:17.162Z,54.63
2023-03-04T12:41:53.452Z,54.59
2023-03-04T12:44:21.542Z,54.72
2023-03-04T12:47:08.694Z,53.97
2023-03-04T12:49:45.959Z,54.52
2023-03-04T12:53:16.196Z,55.33
2023-03-04T12:55:47.066Z,55.72
2023-03-04T12:58:29.813Z,55.75
2023-03-04T13:01:23.400Z,56.03
2023-03-04T13:04:09.693Z,56.54
2023-03-04T13:07:31.770Z,56.53
2023-03-04T13:10:10.219Z,55.77
2023-03-04T13:12:50.366Z,55.80
2023-03-04T13:15:21.195Z,55.92
2023-03-04T13:17:51.711Z,56.10
2023-03-04T13:20:31.612Z,55.97
2023-03-04T13:23:04.617Z,56.67
2023-03-04T13:25:46.699Z,56.62
2023-03-04T13:28:19.423Z,57.22
2023-03-04T13:30:45.839Z,56.66
2023-03-04T13:33:14.901Z,57.02
2023-03-04T13:36:05.162Z,58.72
2023-03-04T13:38:31.668Z,58.71
2023-03-04T13:41:27.491Z,58.32
2023-03-04T13:43:56.246Z,57.68
2023-03-04T13:46:23.690Z,57.37
2023-03-04T13:48:50.239Z,58.17
2023-03-04T13:51:44.135Z,59.97
2023-03-04T13:54:24.136Z,59.31
2023-03-04T13:57:24.568Z,58.26
2023-03-04T13:59:57.036Z,58.59
2023-03-04T14:02:26.149Z,58.19
2023-03-04T14:05:01.572Z,58.02
2023-03-04T14:07:36.988Z,58.84
2023-03-04T14:10:27.884Z,59.24
2023-03-04T14:12:58.872Z,58.98
2023-03-04T14:15:29.562Z,58.95
2023-03-04T14:18:02.588Z,58.42
2023-03-04T14:20:48.623Z,58.73
2023-03-04T14:23:32.560Z,58.08
2023-03-04T14:26:17.645Z,58.58
2023-03-04T14:28:57.261Z,59.25
2023-03-04T14:31:39.244Z,59.24
2023-03-04T14:34:26.517Z,59.53
2023-03-04T14:36:54.550Z,59.00
2023-03-04T14:39:26.467Z,59.83
2023-03-04T14:41:55.821Z,59.59
2023-03-04T14:44:35.646Z,59.12
2023-03-04T14:47:24.480Z,59.32
2023-03-04T14:49:51.480Z,59.97
2023-03-04T14:52:43.859Z,59.76
2023-03-04T14:55:22.276Z,59.92
2023-03-04T14:57:58.250Z,59.70
2023-03-04T15:00:27.010Z,59.93
2023-03-04T15:03:21.808Z,60.42
2023-03-04T15:05:49.604Z,60.42
2023-03-04T15:08:28.028Z,61.21
2023-03-04T15:10:58.644Z,61.51
2023-03-04T15:13:51.560Z,61.70
2023-03-04T15:16:56.220Z,61.50
2023-03-04T15:19:30.008Z,62.30
2023-03-04T15:22:07.206Z,62.52
2023-03-04T15:24:33.657Z,62.68
2023-03-04T15:27:03.253Z,63.21
2023-03-04T15:29:32.352Z,63.43
2023-03-04T15:32:00.785Z,62.56
2023-03-04T15:34:27.543Z,63.22
2023-03-04T15:36:57.921Z,63.72
2023-03-04T15:39:25.265Z,63.56
2023-03-04T15:41:51.805Z,62.51
2023-03-04T15:44:18.332Z,62.14
2023-03-04T15:46:44.928Z,62.61
2023-03-04T15:49:11.822Z,62.86
2023-03-04T15:51:38.641Z,63.26
2023-03-04T15:54:15.324Z,63.49
2023-03-04T15:56:41.805Z,65.24
2023-03-04T15:59:17.949Z,64.48
2023-03-04T16:01:44.932Z,64.54
2023-03-04T16:04:18.305Z,63.72
2023-03-04T16:06:48.346Z,63.99
2023-03-04T16:09:19.663Z,62.96
2023-03-04T16:11:47.568Z,63.93
2023-03-04T16:14:16.165Z,64.47
2023-03-04T16:16:44.007Z,63.95
2023-03-04T16:19:10.547Z,63.44
2023-03-04T16:21:37.067Z,63.70
2023-03-04T16:24:03.921Z,63.27
2023-03-04T16:26:31.300Z,62.88
2023-03-04T16:28:57.761Z,62.73
2023-03-04T16:31:24.308Z,63.62
2023-03-04T16:33:50.885Z,64.52
2023-03-04T16:36:33.159Z,64.10
2023-03-04T16:41:41.076Z,64.13
2023-03-04T16:44:13.906Z,63.92
2023-03-04T16:46:41.069Z,64.18
2023-03-04T16:49:07.602Z,63.81
2023-03-04T16:51:45.224Z,63.20
2023-03-04T16:54:22.385Z,63.37
2023-03-04T16:56:48.863Z,62.57
2023-03-04T16:59:16.766Z,63.50
2023-03-04T17:01:45.475Z,63.50
2023-03-04T17:04:12.129Z,63.49
2023-03-04T17:06:39.789Z,64.01
2023-03-04T17:09:11.202Z,64.31
2023-03-04T17:11:38.303Z,64.50
2023-03-04T17:14:05.606Z,64.34
2023-03-04T17:16:32.996Z,64.56
2023-03-04T17:19:00.042Z,64.49
2023-03-04T17:21:27.662Z,64.29
2023-03-04T17:23:54.828Z,64.11
2023-03-04T17:26:22.976Z,64.26
2023-03-04T17:28:51.491Z,64.27
2023-03-04T17:31:20.674Z,63.93
2023-03-04T17:33:48.175Z,64.16
2023-03-04T17:36:23.741Z,64.22
2023-03-04T17:38:53.285Z,65.28
2023-03-04T17:41:21.273Z,65.31
2023-03-04T17:43:51.325Z,64.88
2023-03-04T17:46:22.128Z,65.27
2023-03-04T17:48:53.622Z,65.76
2023-03-04T17:51:41.051Z,65.43
2023-03-04T17:54:09.515Z,65.04
2023-03-04T17:56:39.303Z,64.85
2023-03-04T17:59:08.712Z,64.87
2023-03-04T18:01:38.253Z,65.42
2023-03-04T18:04:05.293Z,65.41
2023-03-04T18:06:31.844Z,65.22
2023-03-04T18:09:00.949Z,64.47
2023-03-04T18:11:28.310Z,64.35
2023-03-04T18:13:56.645Z,65.08
2023-03-04T18:16:27.245Z,65.21
2023-03-04T18:18:58.983Z,65.06
2023-03-04T18:21:28.812Z,64.91
2023-03-04T18:23:56.873Z,64.87
2023-03-04T18:26:25.176Z,64.53
2023-03-04T18:28:54.697Z,64.35
2023-03-04T18:31:25.064Z,64.23
2023-03-04T18:33:53.024Z,64.91
2023-03-04T18:36:20.380Z,64.83
2023-03-04T18:38:46.884Z,65.16
2023-03-04T18:41:15.705Z,64.93
2023-03-04T18:43:42.769Z,65.01
2023-03-04T18:46:28.737Z,64.78
2023-03-04T18:49:12.346Z,64.59
2023-03-04T18:51:38.967Z,64.85
2023-03-04T18:54:05.832Z,64.82
2023-03-04T18:56:46.024Z,64.30
2023-03-04T18:59:19.990Z,64.41
2023-03-04T19:01:51.063Z,64.35
2023-03-04T19:04:22.363Z,64.23
2023-03-04T19:06:49.373Z,63.85
2023-03-04T19:09:18.908Z,63.75
2023-03-04T19:11:45.506Z,64.02
2023-03-04T19:14:12.139Z,63.58
2023-03-04T19:16:39.830Z,63.33
2023-03-04T19:19:07.360Z,62.78
2023-03-04T19:21:38.598Z,62.61
2023-03-04T19:24:06.112Z,62.40
2023-03-04T19:26:32.856Z,62.47
2023-03-04T19:28:59.378Z,62.67
2023-03-04T19:31:25.963Z,62.99
2023-03-04T19:33:52.538Z,62.43
2023-03-04T19:36:19.086Z,62.68
2023-03-04T19:38:45.635Z,62.60
2023-03-04T19:41:17.316Z,62.31
2023-03-04T19:43:45.928Z,61.95
2023-03-04T19:46:13.801Z,61.69
2023-03-04T19:48:41.053Z,61.54
2023-03-04T19:51:26.058Z,61.48
2023-03-04T19:53:54.499Z,61.43
2023-03-04T19:56:23.516Z,60.84
2023-03-04T19:58:53.655Z,60.97
2023-03-04T20:01:27.965Z,60.70
2023-03-04T20:04:02.176Z,61.42
2023-03-04T20:06:30.455Z,61.59
2023-03-04T20:09:00.504Z,61.46
2023-03-04T20:11:29.807Z,61.17
2023-03-04T20:13:58.429Z,61.12
2023-03-04T20:16:25.742Z,60.77
2023-03-04T20:18:53.159Z,60.26
2023-03-04T20:21:20.468Z,60.14
2023-03-04T20:23:47.204Z,60.54
2023-03-04T20:26:13.676Z,60.63
2023-03-04T20:28:40.163Z,60.06
2023-03-04T20:31:29.603Z,59.91
2023-03-04T20:34:00.157Z,60.03
2023-03-04T20:36:29.832Z,59.71
2023-03-04T20:39:02.375Z,59.75
2023-03-04T20:41:29.540Z,60.04
2023-03-04T20:43:56.064Z,60.01
2023-03-04T20:46:36.812Z,59.48
2023-03-04T20:49:13.982Z,59.93
2023-03-04T20:51:40.790Z,59.95
2023-03-04T20:54:08.699Z,59.83
2023-03-04T20:56:37.098Z,59.50
2023-03-04T20:59:08.100Z,59.54
2023-03-04T21:01:37.346Z,59.52
2023-03-04T21:04:05.017Z,59.60
2023-03-04T21:06:32.703Z,59.26
2023-03-04T21:09:06.872Z,59.07
2023-03-04T21:11:40.056Z,59.48
2023-03-04T21:14:11.231Z,59.55
2023-03-04T21:16:37.745Z,59.60
2023-03-04T21:19:04.299Z,59.43
2023-03-04T21:21:31.146Z,58.89
2023-03-04T21:23:59.864Z,58.30
2023-03-04T21:26:26.834Z,59.14
2023-03-04T21:28:54.609Z,59.33
2023-03-04T21:31:34.292Z,58.94
2023-03-04T21:34:00.877Z,59.38
2023-03-04T21:36:27.515Z,59.35
2023-03-04T21:38:54.301Z,59.48
2023-03-04T21:41:24.975Z,59.64
2023-03-04T21:43:52.178Z,59.48
2023-03-04T21:46:19.203Z,59.24
2023-03-04T21:48:47.712Z,58.63
2023-03-04T21:51:16.774Z,59.25
2023-03-04T21:53:43.975Z,58.69
2023-03-04T21:56:12.416Z,58.23
2023-03-04T21:58:42.235Z,58.02
2023-03-04T22:01:21.315Z,58.23
2023-03-04T22:03:49.867Z,58.50
2023-03-04T22:06:21.818Z,58.27
2023-03-04T22:08:49.674Z,57.99
2023-03-04T22:11:16.629Z,58.43
2023-03-04T22:13:43.674Z,58.00
2023-03-04T22:16:10.661Z,57.93
2023-03-04T22:18:40.521Z,57.83
2023-03-04T22:21:11.648Z,57.70
2023-03-04T22:23:39.507Z,58.57
2023-03-04T22:26:13.195Z,58.01
2023-03-04T22:28:40.557Z,58.03
2023-03-04T22:31:31.476Z,58.41
2023-03-04T22:34:10.392Z,58.24
2023-03-04T22:36:41.177Z,58.14
2023-03-04T22:39:16.120Z,58.30
2023-03-04T22:41:42.645Z,58.28
2023-03-04T22:44:09.140Z,58.33
2023-03-04T22:46:38.778Z,58.32
2023-03-04T22:49:09.944Z,58.13
2023-03-04T22:51:37.322Z,58.33
2023-03-04T22:54:04.210Z,58.19
2023-03-04T22:56:30.820Z,58.36
2023-03-04T22:58:57.427Z,58.10
2023-03-04T23:01:24.616Z,58.21
2023-03-04T23:03:51.353Z,58.29
2023-03-04T23:06:22.139Z,58.09
2023-03-04T23:08:50.607Z,58.03
2023-03-04T23:11:21.796Z,58.13
2023-03-04T23:13:49.955Z,58.78
2023-03-04T23:16:18.781Z,58.56
2023-03-04T23:18:47.627Z,58.43
2023-03-04T23:21:21.840Z,58.76
2023-03-04T23:23:49.761Z,58.75
2023-03-04T23:26:24.480Z,59.00
2023-03-04T23:28:51.800Z,59.16
2023-03-04T23:31:18.901Z,59.12
2023-03-04T23:33:48.175Z,58.78
2023-03-04T23:36:18.676Z,58.53
2023-03-04T23:38:48.692Z,58.33
2023-03-04T23:41:19.761Z,58.86
2023-03-04T23:43:47.568Z,58.94
2023-03-04T23:46:15.280Z,58.34
2023-03-04T23:48:46.186Z,58.40
2023-03-04T23:51:16.218Z,58.46
2023-03-04T23:53:43.383Z,58.08
2023-03-04T23:56:20.239Z,58.47
2023-03-04T23:58:48.077Z,58.88
